Terminal Aerodrome Forecast
Issued by NWS

Home | Current Version | Previous Version | Text Only | Print | Product List | Glossary On
Versions: 1 2 3 4 5 6 7 8 9 10 11 12 13 14 15 16 17 18 19 20 21
000
FTUS41 KOKX 171800 AAA
TAFSWF
TAF AMD
KSWF 171804Z 1718/1824 29014G22KT P6SM BKN025
     FM172000 29014G22KT P6SM BKN035
     FM172300 29012KT P6SM SCT035 BKN050
     FM180500 29016G23KT P6SM BKN050
     FM181000 29015G22KT P6SM SCT035 SCT050
     FM181400 29019G26KT P6SM SCT035
     FM182100 29013G21KT P6SM SCT035
      AMD NOT SKED=

USA.gov is the U.S. government's official web portal to all federal, state and local government web resources and services.